Vera Cruz, Indiana
Current Conditions -  °F | °C
As of 2:15 PM on Tuesday 21 Oct 2014 (Local Time) from KHHG Reporting Station
Overcast Overcast  
Wind Chill: 51°   Ceiling: 2500
Heat Index: 51°   Visibility: 10mi
Dew Point: 43°   Wind: 8mph
Humidity: 75%   Direction: 10°N
Pressure: 30.09"   Gusts: NA
Location:  40.7175°N, 85.1549°W
Report Text: KHHG 211815Z AUTO 01007KT 10SM BKN025 OVC032 10/06 A3009 RMK AO2 T01040061
Loading
Personal Weather Stations






























Interactive Weather Map
Tropical Storm Tracking
New forecast layout! Learn more

10-Day Weather Forecast

Advertisements
Track Severe Weather on mobile